sensor_id;sensor_type;location;lat;lon;timestamp;P1;durP1;ratioP1;P2;durP2;ratioP2
18610;SDS011;9435;52.122;5.502;2022-07-23T00:00:06;5.10;;;3.42;;
18610;SDS011;9435;52.122;5.502;2022-07-23T00:02:34;4.40;;;3.40;;
18610;SDS011;9435;52.122;5.502;2022-07-23T00:05:01;8.02;;;3.50;;
18610;SDS011;9435;52.122;5.502;2022-07-23T00:07:28;5.30;;;3.22;;
18610;SDS011;9435;52.122;5.502;2022-07-23T00:09:55;4.97;;;3.17;;
18610;SDS011;9435;52.122;5.502;2022-07-23T00:12:22;4.75;;;3.38;;
18610;SDS011;9435;52.122;5.502;2022-07-23T00:14:49;5.78;;;3.33;;
18610;SDS011;9435;52.122;5.502;2022-07-23T00:17:18;4.57;;;3.38;;
18610;SDS011;9435;52.122;5.502;2022-07-23T00:19:45;6.07;;;3.30;;
18610;SDS011;9435;52.122;5.502;2022-07-23T00:22:12;5.47;;;3.50;;
18610;SDS011;9435;52.122;5.502;2022-07-23T00:24:39;5.43;;;3.45;;
18610;SDS011;9435;52.122;5.502;2022-07-23T00:27:06;5.72;;;3.50;;
18610;SDS011;9435;52.122;5.502;2022-07-23T00:29:33;6.65;;;3.60;;
18610;SDS011;9435;52.122;5.502;2022-07-23T00:32:00;5.85;;;3.78;;
18610;SDS011;9435;52.122;5.502;2022-07-23T00:34:28;10.63;;;3.80;;
18610;SDS011;9435;52.122;5.502;2022-07-23T00:36:55;4.50;;;3.30;;
18610;SDS011;9435;52.122;5.502;2022-07-23T00:39:22;5.97;;;3.22;;
18610;SDS011;9435;52.122;5.502;2022-07-23T00:41:50;5.03;;;3.63;;
18610;SDS011;9435;52.122;5.502;2022-07-23T00:44:17;5.40;;;3.50;;
18610;SDS011;9435;52.122;5.502;2022-07-23T00:46:46;6.40;;;3.85;;
18610;SDS011;9435;52.122;5.502;2022-07-23T00:49:15;5.68;;;3.88;;
18610;SDS011;9435;52.122;5.502;2022-07-23T00:51:43;7.05;;;3.92;;
18610;SDS011;9435;52.122;5.502;2022-07-23T00:54:10;6.63;;;3.83;;
18610;SDS011;9435;52.122;5.502;2022-07-23T00:56:37;5.97;;;3.83;;
18610;SDS011;9435;52.122;5.502;2022-07-23T00:59:05;6.30;;;3.72;;
18610;SDS011;9435;52.122;5.502;2022-07-23T01:01:33;5.93;;;3.72;;
18610;SDS011;9435;52.122;5.502;2022-07-23T01:04:00;5.63;;;3.70;;
18610;SDS011;9435;52.122;5.502;2022-07-23T01:06:27;5.97;;;3.50;;
18610;SDS011;9435;52.122;5.502;2022-07-23T01:08:56;6.28;;;3.75;;
18610;SDS011;9435;52.122;5.502;2022-07-23T01:11:23;8.82;;;4.40;;
18610;SDS011;9435;52.122;5.502;2022-07-23T01:13:51;6.22;;;4.15;;
18610;SDS011;9435;52.122;5.502;2022-07-23T01:16:19;7.18;;;4.38;;
18610;SDS011;9435;52.122;5.502;2022-07-23T01:18:46;6.40;;;3.95;;
18610;SDS011;9435;52.122;5.502;2022-07-23T01:21:13;7.00;;;4.20;;
18610;SDS011;9435;52.122;5.502;2022-07-23T01:23:42;5.28;;;3.50;;
18610;SDS011;9435;52.122;5.502;2022-07-23T01:26:09;6.88;;;4.30;;
18610;SDS011;9435;52.122;5.502;2022-07-23T01:28:36;6.07;;;3.88;;
18610;SDS011;9435;52.122;5.502;2022-07-23T01:31:03;7.65;;;3.83;;
18610;SDS011;9435;52.122;5.502;2022-07-23T01:33:30;7.60;;;4.20;;
18610;SDS011;9435;52.122;5.502;2022-07-23T01:35:57;5.30;;;3.67;;
18610;SDS011;9435;52.122;5.502;2022-07-23T01:38:24;6.32;;;4.20;;
18610;SDS011;9435;52.122;5.502;2022-07-23T01:40:52;6.85;;;4.00;;
18610;SDS011;9435;52.122;5.502;2022-07-23T01:43:19;5.40;;;4.03;;
18610;SDS011;9435;52.122;5.502;2022-07-23T01:45:46;5.70;;;3.90;;
18610;SDS011;9435;52.122;5.502;2022-07-23T01:48:13;5.78;;;4.00;;
18610;SDS011;9435;52.122;5.502;2022-07-23T01:50:41;6.57;;;4.07;;
18610;SDS011;9435;52.122;5.502;2022-07-23T01:53:08;7.00;;;4.22;;
18610;SDS011;9435;52.122;5.502;2022-07-23T01:55:35;6.65;;;4.50;;
18610;SDS011;9435;52.122;5.502;2022-07-23T01:58:04;7.30;;;4.30;;
18610;SDS011;9435;52.122;5.502;2022-07-23T02:00:31;5.90;;;4.00;;
18610;SDS011;9435;52.122;5.502;2022-07-23T02:02:58;5.65;;;4.03;;
18610;SDS011;9435;52.122;5.502;2022-07-23T02:05:26;4.65;;;3.42;;
18610;SDS011;9435;52.122;5.502;2022-07-23T02:07:53;6.10;;;3.35;;
18610;SDS011;9435;52.122;5.502;2022-07-23T02:10:21;5.90;;;3.80;;
18610;SDS011;9435;52.122;5.502;2022-07-23T02:12:48;5.80;;;3.97;;
18610;SDS011;9435;52.122;5.502;2022-07-23T02:15:16;5.72;;;3.85;;
18610;SDS011;9435;52.122;5.502;2022-07-23T02:17:43;6.90;;;3.63;;
18610;SDS011;9435;52.122;5.502;2022-07-23T02:20:11;7.22;;;3.90;;
18610;SDS011;9435;52.122;5.502;2022-07-23T02:22:38;6.45;;;4.03;;
18610;SDS011;9435;52.122;5.502;2022-07-23T02:25:06;7.55;;;4.10;;
18610;SDS011;9435;52.122;5.502;2022-07-23T02:27:34;6.53;;;4.45;;
18610;SDS011;9435;52.122;5.502;2022-07-23T02:30:02;7.18;;;4.45;;
18610;SDS011;9435;52.122;5.502;2022-07-23T02:32:32;6.80;;;4.30;;
18610;SDS011;9435;52.122;5.502;2022-07-23T02:34:59;6.13;;;4.50;;
18610;SDS011;9435;52.122;5.502;2022-07-23T02:37:26;6.38;;;4.43;;
18610;SDS011;9435;52.122;5.502;2022-07-23T02:39:53;7.38;;;4.13;;
18610;SDS011;9435;52.122;5.502;2022-07-23T02:42:20;5.40;;;3.17;;
18610;SDS011;9435;52.122;5.502;2022-07-23T02:44:49;3.38;;;2.65;;
18610;SDS011;9435;52.122;5.502;2022-07-23T02:47:16;5.55;;;3.33;;
18610;SDS011;9435;52.122;5.502;2022-07-23T02:49:44;4.55;;;3.35;;
18610;SDS011;9435;52.122;5.502;2022-07-23T02:52:11;5.18;;;3.80;;
18610;SDS011;9435;52.122;5.502;2022-07-23T02:54:38;4.90;;;3.60;;
18610;SDS011;9435;52.122;5.502;2022-07-23T02:57:05;9.43;;;4.20;;
18610;SDS011;9435;52.122;5.502;2022-07-23T02:59:32;5.43;;;3.55;;
18610;SDS011;9435;52.122;5.502;2022-07-23T03:01:59;5.43;;;3.78;;
18610;SDS011;9435;52.122;5.502;2022-07-23T03:04:26;6.55;;;3.97;;
18610;SDS011;9435;52.122;5.502;2022-07-23T03:06:55;5.65;;;3.58;;
18610;SDS011;9435;52.122;5.502;2022-07-23T03:09:22;8.23;;;3.92;;
18610;SDS011;9435;52.122;5.502;2022-07-23T03:11:49;5.63;;;3.75;;
18610;SDS011;9435;52.122;5.502;2022-07-23T03:14:20;5.28;;;3.80;;
18610;SDS011;9435;52.122;5.502;2022-07-23T03:16:48;6.97;;;3.55;;
18610;SDS011;9435;52.122;5.502;2022-07-23T03:19:15;4.78;;;3.67;;
18610;SDS011;9435;52.122;5.502;2022-07-23T03:21:49;4.95;;;3.15;;
18610;SDS011;9435;52.122;5.502;2022-07-23T03:24:22;4.55;;;3.38;;
18610;SDS011;9435;52.122;5.502;2022-07-23T03:27:10;7.20;;;3.25;;
18610;SDS011;9435;52.122;5.502;2022-07-23T03:29:37;4.93;;;3.38;;
18610;SDS011;9435;52.122;5.502;2022-07-23T03:32:04;5.43;;;3.35;;
18610;SDS011;9435;52.122;5.502;2022-07-23T03:34:31;4.32;;;3.20;;
18610;SDS011;9435;52.122;5.502;2022-07-23T03:36:58;5.72;;;3.50;;
18610;SDS011;9435;52.122;5.502;2022-07-23T03:39:27;5.32;;;3.42;;
18610;SDS011;9435;52.122;5.502;2022-07-23T03:41:54;5.45;;;3.65;;
18610;SDS011;9435;52.122;5.502;2022-07-23T03:44:21;4.90;;;3.40;;
18610;SDS011;9435;52.122;5.502;2022-07-23T03:46:48;5.72;;;3.60;;
18610;SDS011;9435;52.122;5.502;2022-07-23T03:49:15;6.60;;;3.60;;
18610;SDS011;9435;52.122;5.502;2022-07-23T03:51:42;4.63;;;3.42;;
18610;SDS011;9435;52.122;5.502;2022-07-23T03:54:09;4.70;;;3.30;;
18610;SDS011;9435;52.122;5.502;2022-07-23T03:56:38;5.20;;;3.00;;
18610;SDS011;9435;52.122;5.502;2022-07-23T03:59:05;6.40;;;3.40;;
18610;SDS011;9435;52.122;5.502;2022-07-23T04:01:32;5.20;;;3.30;;
18610;SDS011;9435;52.122;5.502;2022-07-23T04:03:59;4.85;;;3.40;;
18610;SDS011;9435;52.122;5.502;2022-07-23T04:06:26;4.53;;;3.55;;
18610;SDS011;9435;52.122;5.502;2022-07-23T04:08:53;5.65;;;3.53;;
18610;SDS011;9435;52.122;5.502;2022-07-23T04:11:21;5.53;;;3.72;;
18610;SDS011;9435;52.122;5.502;2022-07-23T04:13:50;6.53;;;4.32;;
18610;SDS011;9435;52.122;5.502;2022-07-23T04:16:17;6.45;;;3.97;;
18610;SDS011;9435;52.122;5.502;2022-07-23T04:18:44;5.03;;;3.85;;
18610;SDS011;9435;52.122;5.502;2022-07-23T04:21:11;6.32;;;3.97;;
18610;SDS011;9435;52.122;5.502;2022-07-23T04:23:38;6.40;;;4.20;;
18610;SDS011;9435;52.122;5.502;2022-07-23T04:26:05;6.82;;;4.07;;
18610;SDS011;9435;52.122;5.502;2022-07-23T04:28:32;5.80;;;4.00;;
18610;SDS011;9435;52.122;5.502;2022-07-23T04:31:00;6.00;;;3.75;;
18610;SDS011;9435;52.122;5.502;2022-07-23T04:33:27;4.97;;;3.80;;
18610;SDS011;9435;52.122;5.502;2022-07-23T04:35:54;5.82;;;4.10;;
18610;SDS011;9435;52.122;5.502;2022-07-23T04:38:21;6.85;;;4.18;;
18610;SDS011;9435;52.122;5.502;2022-07-23T04:40:48;6.68;;;3.90;;
18610;SDS011;9435;52.122;5.502;2022-07-23T04:43:15;5.35;;;3.97;;
18610;SDS011;9435;52.122;5.502;2022-07-23T04:45:42;7.00;;;4.15;;
18610;SDS011;9435;52.122;5.502;2022-07-23T04:48:10;7.15;;;4.78;;
18610;SDS011;9435;52.122;5.502;2022-07-23T04:50:37;7.38;;;4.60;;
18610;SDS011;9435;52.122;5.502;2022-07-23T04:53:04;6.72;;;4.53;;
18610;SDS011;9435;52.122;5.502;2022-07-23T04:55:31;11.68;;;4.90;;
18610;SDS011;9435;52.122;5.502;2022-07-23T04:57:58;8.52;;;4.82;;
18610;SDS011;9435;52.122;5.502;2022-07-23T05:00:25;7.45;;;4.82;;
18610;SDS011;9435;52.122;5.502;2022-07-23T05:02:52;7.57;;;4.90;;
18610;SDS011;9435;52.122;5.502;2022-07-23T05:05:21;8.85;;;4.80;;
18610;SDS011;9435;52.122;5.502;2022-07-23T05:07:48;7.53;;;4.45;;
18610;SDS011;9435;52.122;5.502;2022-07-23T05:10:15;6.30;;;4.03;;
18610;SDS011;9435;52.122;5.502;2022-07-23T05:12:42;7.57;;;4.72;;
18610;SDS011;9435;52.122;5.502;2022-07-23T05:15:09;6.55;;;4.53;;
18610;SDS011;9435;52.122;5.502;2022-07-23T05:17:36;6.90;;;4.60;;
18610;SDS011;9435;52.122;5.502;2022-07-23T05:20:03;6.55;;;4.20;;
18610;SDS011;9435;52.122;5.502;2022-07-23T05:22:32;6.50;;;4.30;;
18610;SDS011;9435;52.122;5.502;2022-07-23T05:24:59;5.57;;;4.28;;
18610;SDS011;9435;52.122;5.502;2022-07-23T05:27:26;6.38;;;4.43;;
18610;SDS011;9435;52.122;5.502;2022-07-23T05:29:53;7.38;;;4.85;;
18610;SDS011;9435;52.122;5.502;2022-07-23T05:32:23;7.18;;;4.82;;
18610;SDS011;9435;52.122;5.502;2022-07-23T05:34:50;8.10;;;4.78;;
18610;SDS011;9435;52.122;5.502;2022-07-23T05:37:17;8.05;;;4.85;;
18610;SDS011;9435;52.122;5.502;2022-07-23T05:39:45;8.48;;;5.40;;
18610;SDS011;9435;52.122;5.502;2022-07-23T05:42:12;8.90;;;6.03;;
18610;SDS011;9435;52.122;5.502;2022-07-23T05:44:40;9.50;;;5.60;;
18610;SDS011;9435;52.122;5.502;2022-07-23T05:47:07;11.90;;;6.70;;
18610;SDS011;9435;52.122;5.502;2022-07-23T05:49:34;14.25;;;6.82;;
18610;SDS011;9435;52.122;5.502;2022-07-23T05:52:03;10.85;;;6.90;;
18610;SDS011;9435;52.122;5.502;2022-07-23T05:54:31;13.05;;;6.88;;
18610;SDS011;9435;52.122;5.502;2022-07-23T05:57:01;10.15;;;7.03;;
18610;SDS011;9435;52.122;5.502;2022-07-23T05:59:29;11.27;;;6.63;;
18610;SDS011;9435;52.122;5.502;2022-07-23T06:01:56;10.68;;;6.10;;
18610;SDS011;9435;52.122;5.502;2022-07-23T06:04:23;9.43;;;5.63;;
18610;SDS011;9435;52.122;5.502;2022-07-23T06:06:50;10.88;;;5.70;;
18610;SDS011;9435;52.122;5.502;2022-07-23T06:09:17;7.00;;;4.68;;
18610;SDS011;9435;52.122;5.502;2022-07-23T06:11:45;7.82;;;5.10;;
18610;SDS011;9435;52.122;5.502;2022-07-23T06:14:13;7.63;;;4.85;;
18610;SDS011;9435;52.122;5.502;2022-07-23T06:16:40;7.43;;;4.38;;
18610;SDS011;9435;52.122;5.502;2022-07-23T06:19:07;6.88;;;4.50;;
18610;SDS011;9435;52.122;5.502;2022-07-23T06:21:34;8.57;;;4.18;;
18610;SDS011;9435;52.122;5.502;2022-07-23T06:24:01;7.38;;;4.20;;
18610;SDS011;9435;52.122;5.502;2022-07-23T06:26:28;5.88;;;3.83;;
18610;SDS011;9435;52.122;5.502;2022-07-23T06:28:55;8.02;;;3.83;;
18610;SDS011;9435;52.122;5.502;2022-07-23T06:31:23;7.57;;;4.00;;
18610;SDS011;9435;52.122;5.502;2022-07-23T06:33:50;6.97;;;3.65;;
18610;SDS011;9435;52.122;5.502;2022-07-23T06:36:17;5.60;;;3.35;;
18610;SDS011;9435;52.122;5.502;2022-07-23T06:38:44;6.72;;;3.20;;
18610;SDS011;9435;52.122;5.502;2022-07-23T06:41:12;5.72;;;2.95;;
18610;SDS011;9435;52.122;5.502;2022-07-23T06:43:39;4.43;;;2.78;;
18610;SDS011;9435;52.122;5.502;2022-07-23T06:46:06;4.38;;;2.58;;
18610;SDS011;9435;52.122;5.502;2022-07-23T06:48:34;5.45;;;2.67;;
18610;SDS011;9435;52.122;5.502;2022-07-23T06:51:01;5.25;;;3.10;;
18610;SDS011;9435;52.122;5.502;2022-07-23T06:53:29;5.22;;;2.80;;
18610;SDS011;9435;52.122;5.502;2022-07-23T06:55:56;4.00;;;2.95;;
18610;SDS011;9435;52.122;5.502;2022-07-23T06:58:23;9.68;;;3.35;;
18610;SDS011;9435;52.122;5.502;2022-07-23T07:00:50;9.18;;;3.60;;
18610;SDS011;9435;52.122;5.502;2022-07-23T07:03:17;5.53;;;2.40;;
18610;SDS011;9435;52.122;5.502;2022-07-23T07:05:46;6.53;;;2.78;;
18610;SDS011;9435;52.122;5.502;2022-07-23T07:08:13;4.93;;;2.50;;
18610;SDS011;9435;52.122;5.502;2022-07-23T07:10:40;5.28;;;2.63;;
18610;SDS011;9435;52.122;5.502;2022-07-23T07:13:07;4.30;;;2.40;;
18610;SDS011;9435;52.122;5.502;2022-07-23T07:15:34;6.40;;;2.67;;
18610;SDS011;9435;52.122;5.502;2022-07-23T07:18:01;5.18;;;2.80;;
18610;SDS011;9435;52.122;5.502;2022-07-23T07:20:28;3.75;;;1.90;;
18610;SDS011;9435;52.122;5.502;2022-07-23T07:22:57;5.05;;;2.50;;
18610;SDS011;9435;52.122;5.502;2022-07-23T07:25:24;4.70;;;1.60;;
18610;SDS011;9435;52.122;5.502;2022-07-23T07:27:51;2.60;;;1.52;;
18610;SDS011;9435;52.122;5.502;2022-07-23T07:30:18;5.40;;;2.00;;
18610;SDS011;9435;52.122;5.502;2022-07-23T07:32:45;4.20;;;2.25;;
18610;SDS011;9435;52.122;5.502;2022-07-23T07:35:12;4.38;;;2.75;;
18610;SDS011;9435;52.122;5.502;2022-07-23T07:37:40;4.53;;;3.00;;
18610;SDS011;9435;52.122;5.502;2022-07-23T07:40:09;5.18;;;3.17;;
18610;SDS011;9435;52.122;5.502;2022-07-23T07:42:43;5.38;;;3.00;;
18610;SDS011;9435;52.122;5.502;2022-07-23T07:45:11;6.70;;;3.13;;
18610;SDS011;9435;52.122;5.502;2022-07-23T07:47:38;5.18;;;3.00;;
18610;SDS011;9435;52.122;5.502;2022-07-23T07:50:05;4.28;;;2.70;;
18610;SDS011;9435;52.122;5.502;2022-07-23T07:52:33;7.47;;;3.33;;
18610;SDS011;9435;52.122;5.502;2022-07-23T07:55:01;4.28;;;2.63;;
18610;SDS011;9435;52.122;5.502;2022-07-23T07:57:30;4.47;;;2.35;;
18610;SDS011;9435;52.122;5.502;2022-07-23T07:59:57;5.97;;;2.80;;
18610;SDS011;9435;52.122;5.502;2022-07-23T08:02:24;6.90;;;2.80;;
18610;SDS011;9435;52.122;5.502;2022-07-23T08:04:51;5.28;;;2.75;;
18610;SDS011;9435;52.122;5.502;2022-07-23T08:07:18;5.20;;;2.40;;
18610;SDS011;9435;52.122;5.502;2022-07-23T08:09:45;4.97;;;2.80;;
18610;SDS011;9435;52.122;5.502;2022-07-23T08:12:12;5.32;;;2.75;;
18610;SDS011;9435;52.122;5.502;2022-07-23T08:14:41;5.80;;;2.63;;
18610;SDS011;9435;52.122;5.502;2022-07-23T08:17:08;5.10;;;2.35;;
18610;SDS011;9435;52.122;5.502;2022-07-23T08:19:35;3.35;;;2.30;;
18610;SDS011;9435;52.122;5.502;2022-07-23T08:22:02;4.30;;;1.92;;
18610;SDS011;9435;52.122;5.502;2022-07-23T08:24:29;3.35;;;1.90;;
18610;SDS011;9435;52.122;5.502;2022-07-23T08:26:56;5.03;;;1.80;;
18610;SDS011;9435;52.122;5.502;2022-07-23T08:29:22;3.90;;;1.70;;
18610;SDS011;9435;52.122;5.502;2022-07-23T08:31:51;4.72;;;2.20;;
18610;SDS011;9435;52.122;5.502;2022-07-23T08:34:18;4.75;;;1.88;;
18610;SDS011;9435;52.122;5.502;2022-07-23T08:36:45;4.53;;;2.00;;
18610;SDS011;9435;52.122;5.502;2022-07-23T08:39:12;5.18;;;1.90;;
18610;SDS011;9435;52.122;5.502;2022-07-23T08:41:39;3.42;;;1.85;;
18610;SDS011;9435;52.122;5.502;2022-07-23T08:44:07;5.03;;;2.10;;
18610;SDS011;9435;52.122;5.502;2022-07-23T08:46:34;5.07;;;2.00;;
18610;SDS011;9435;52.122;5.502;2022-07-23T08:49:04;3.80;;;2.08;;
18610;SDS011;9435;52.122;5.502;2022-07-23T08:51:31;2.97;;;2.08;;
18610;SDS011;9435;52.122;5.502;2022-07-23T08:53:59;5.03;;;2.28;;
18610;SDS011;9435;52.122;5.502;2022-07-23T08:56:26;2.92;;;1.85;;
18610;SDS011;9435;52.122;5.502;2022-07-23T08:58:53;3.53;;;1.83;;
18610;SDS011;9435;52.122;5.502;2022-07-23T09:01:20;3.50;;;1.80;;
18610;SDS011;9435;52.122;5.502;2022-07-23T09:03:48;4.30;;;2.45;;
18610;SDS011;9435;52.122;5.502;2022-07-23T09:06:16;5.18;;;1.90;;
18610;SDS011;9435;52.122;5.502;2022-07-23T09:08:43;4.53;;;2.00;;
18610;SDS011;9435;52.122;5.502;2022-07-23T09:11:11;2.58;;;1.60;;
18610;SDS011;9435;52.122;5.502;2022-07-23T09:13:41;3.53;;;1.70;;
18610;SDS011;9435;52.122;5.502;2022-07-23T09:16:12;4.93;;;1.70;;
18610;SDS011;9435;52.122;5.502;2022-07-23T09:18:42;4.13;;;1.90;;
18610;SDS011;9435;52.122;5.502;2022-07-23T09:21:19;4.93;;;2.00;;
18610;SDS011;9435;52.122;5.502;2022-07-23T09:23:49;3.55;;;1.92;;
18610;SDS011;9435;52.122;5.502;2022-07-23T09:26:22;3.63;;;1.30;;
18610;SDS011;9435;52.122;5.502;2022-07-23T09:29:02;3.55;;;1.73;;
18610;SDS011;9435;52.122;5.502;2022-07-23T09:31:31;4.90;;;1.80;;
18610;SDS011;9435;52.122;5.502;2022-07-23T09:34:07;3.13;;;1.73;;
18610;SDS011;9435;52.122;5.502;2022-07-23T09:36:36;3.30;;;1.50;;
18610;SDS011;9435;52.122;5.502;2022-07-23T09:39:04;3.83;;;1.60;;
18610;SDS011;9435;52.122;5.502;2022-07-23T09:41:39;3.22;;;1.42;;
18610;SDS011;9435;52.122;5.502;2022-07-23T09:44:12;3.28;;;1.90;;
18610;SDS011;9435;52.122;5.502;2022-07-23T09:46:41;6.72;;;2.00;;
18610;SDS011;9435;52.122;5.502;2022-07-23T09:49:10;2.67;;;1.60;;
18610;SDS011;9435;52.122;5.502;2022-07-23T09:51:47;4.55;;;2.05;;
18610;SDS011;9435;52.122;5.502;2022-07-23T09:57:05;3.75;;;1.88;;
18610;SDS011;9435;52.122;5.502;2022-07-23T09:59:34;4.18;;;1.88;;
18610;SDS011;9435;52.122;5.502;2022-07-23T10:02:03;1.90;;;1.40;;
18610;SDS011;9435;52.122;5.502;2022-07-23T10:04:31;3.00;;;1.70;;
18610;SDS011;9435;52.122;5.502;2022-07-23T10:07:02;3.10;;;1.50;;
18610;SDS011;9435;52.122;5.502;2022-07-23T10:09:31;3.10;;;1.90;;
18610;SDS011;9435;52.122;5.502;2022-07-23T10:12:00;6.43;;;1.85;;
18610;SDS011;9435;52.122;5.502;2022-07-23T10:14:49;4.97;;;1.70;;
18610;SDS011;9435;52.122;5.502;2022-07-23T10:17:16;3.08;;;1.77;;
18610;SDS011;9435;52.122;5.502;2022-07-23T10:19:44;2.72;;;1.70;;
18610;SDS011;9435;52.122;5.502;2022-07-23T10:22:13;3.63;;;1.70;;
18610;SDS011;9435;52.122;5.502;2022-07-23T10:24:47;4.03;;;1.70;;
18610;SDS011;9435;52.122;5.502;2022-07-23T10:30:33;5.85;;;1.98;;
18610;SDS011;9435;52.122;5.502;2022-07-23T10:33:20;3.55;;;1.80;;
18610;SDS011;9435;52.122;5.502;2022-07-23T10:35:58;2.80;;;1.38;;
18610;SDS011;9435;52.122;5.502;2022-07-23T10:38:33;4.00;;;1.60;;
18610;SDS011;9435;52.122;5.502;2022-07-23T10:41:06;2.80;;;1.30;;
18610;SDS011;9435;52.122;5.502;2022-07-23T10:43:33;3.85;;;1.50;;
18610;SDS011;9435;52.122;5.502;2022-07-23T10:58:19;3.53;;;1.58;;
18610;SDS011;9435;52.122;5.502;2022-07-23T11:00:47;3.58;;;1.48;;
18610;SDS011;9435;52.122;5.502;2022-07-23T11:03:29;3.25;;;1.40;;
18610;SDS011;9435;52.122;5.502;2022-07-23T11:06:00;2.85;;;1.60;;
18610;SDS011;9435;52.122;5.502;2022-07-23T11:08:28;2.58;;;1.40;;
18610;SDS011;9435;52.122;5.502;2022-07-23T11:11:07;4.45;;;1.60;;
18610;SDS011;9435;52.122;5.502;2022-07-23T11:13:37;4.00;;;1.60;;
18610;SDS011;9435;52.122;5.502;2022-07-23T11:16:15;2.22;;;1.38;;
18610;SDS011;9435;52.122;5.502;2022-07-23T11:19:03;2.53;;;1.10;;
18610;SDS011;9435;52.122;5.502;2022-07-23T11:21:40;4.18;;;1.48;;
18610;SDS011;9435;52.122;5.502;2022-07-23T11:24:09;3.65;;;1.63;;
18610;SDS011;9435;52.122;5.502;2022-07-23T11:26:45;3.42;;;1.40;;
18610;SDS011;9435;52.122;5.502;2022-07-23T11:29:41;3.63;;;1.80;;
18610;SDS011;9435;52.122;5.502;2022-07-23T11:32:32;3.78;;;1.90;;
18610;SDS011;9435;52.122;5.502;2022-07-23T11:35:03;4.20;;;2.08;;
18610;SDS011;9435;52.122;5.502;2022-07-23T11:37:48;3.30;;;1.58;;
18610;SDS011;9435;52.122;5.502;2022-07-23T11:40:19;4.18;;;2.00;;
18610;SDS011;9435;52.122;5.502;2022-07-23T11:42:55;2.42;;;1.48;;
18610;SDS011;9435;52.122;5.502;2022-07-23T11:45:24;2.75;;;1.75;;
18610;SDS011;9435;52.122;5.502;2022-07-23T11:47:55;3.08;;;1.60;;
18610;SDS011;9435;52.122;5.502;2022-07-23T11:50:23;6.00;;;2.00;;
18610;SDS011;9435;52.122;5.502;2022-07-23T11:52:51;3.33;;;1.90;;
18610;SDS011;9435;52.122;5.502;2022-07-23T11:55:18;5.90;;;1.73;;
18610;SDS011;9435;52.122;5.502;2022-07-23T11:57:46;2.13;;;1.40;;
18610;SDS011;9435;52.122;5.502;2022-07-23T12:00:15;3.58;;;1.50;;
18610;SDS011;9435;52.122;5.502;2022-07-23T12:02:44;3.63;;;1.50;;
18610;SDS011;9435;52.122;5.502;2022-07-23T12:05:13;2.90;;;1.50;;
18610;SDS011;9435;52.122;5.502;2022-07-23T12:07:41;2.08;;;1.42;;
18610;SDS011;9435;52.122;5.502;2022-07-23T12:10:10;3.60;;;1.63;;
18610;SDS011;9435;52.122;5.502;2022-07-23T12:12:41;4.18;;;1.75;;
18610;SDS011;9435;52.122;5.502;2022-07-23T12:15:09;3.20;;;1.42;;
18610;SDS011;9435;52.122;5.502;2022-07-23T12:17:39;2.83;;;1.55;;
18610;SDS011;9435;52.122;5.502;2022-07-23T12:20:09;4.47;;;1.75;;
18610;SDS011;9435;52.122;5.502;2022-07-23T12:22:39;2.53;;;1.60;;
18610;SDS011;9435;52.122;5.502;2022-07-23T12:25:08;2.97;;;1.60;;
18610;SDS011;9435;52.122;5.502;2022-07-23T12:27:37;2.97;;;1.77;;
18610;SDS011;9435;52.122;5.502;2022-07-23T12:30:17;3.53;;;1.60;;
18610;SDS011;9435;52.122;5.502;2022-07-23T12:32:50;4.30;;;1.60;;
18610;SDS011;9435;52.122;5.502;2022-07-23T12:35:18;4.78;;;1.55;;
18610;SDS011;9435;52.122;5.502;2022-07-23T12:37:47;3.95;;;2.03;;
18610;SDS011;9435;52.122;5.502;2022-07-23T12:40:27;4.07;;;1.88;;
18610;SDS011;9435;52.122;5.502;2022-07-23T12:42:56;2.90;;;1.70;;
18610;SDS011;9435;52.122;5.502;2022-07-23T12:45:25;3.88;;;1.70;;
18610;SDS011;9435;52.122;5.502;2022-07-23T12:48:03;2.55;;;1.63;;
18610;SDS011;9435;52.122;5.502;2022-07-23T12:50:42;3.53;;;1.60;;
18610;SDS011;9435;52.122;5.502;2022-07-23T12:53:12;3.10;;;1.70;;
18610;SDS011;9435;52.122;5.502;2022-07-23T12:55:42;2.70;;;1.70;;
18610;SDS011;9435;52.122;5.502;2022-07-23T12:58:12;4.82;;;1.60;;
18610;SDS011;9435;52.122;5.502;2022-07-23T13:00:52;4.88;;;1.70;;
18610;SDS011;9435;52.122;5.502;2022-07-23T13:03:26;5.55;;;1.90;;
18610;SDS011;9435;52.122;5.502;2022-07-23T13:05:59;5.82;;;1.83;;
18610;SDS011;9435;52.122;5.502;2022-07-23T13:08:27;4.30;;;1.95;;
18610;SDS011;9435;52.122;5.502;2022-07-23T13:10:55;3.70;;;1.90;;
18610;SDS011;9435;52.122;5.502;2022-07-23T13:13:23;2.55;;;1.90;;
18610;SDS011;9435;52.122;5.502;2022-07-23T13:15:52;2.58;;;1.70;;
18610;SDS011;9435;52.122;5.502;2022-07-23T13:18:20;2.60;;;1.80;;
18610;SDS011;9435;52.122;5.502;2022-07-23T13:20:49;4.32;;;1.90;;
18610;SDS011;9435;52.122;5.502;2022-07-23T13:23:16;3.67;;;1.90;;
18610;SDS011;9435;52.122;5.502;2022-07-23T13:25:44;3.60;;;1.55;;
18610;SDS011;9435;52.122;5.502;2022-07-23T13:28:11;2.95;;;1.70;;
18610;SDS011;9435;52.122;5.502;2022-07-23T13:30:39;4.53;;;2.00;;
18610;SDS011;9435;52.122;5.502;2022-07-23T13:33:07;3.50;;;2.00;;
18610;SDS011;9435;52.122;5.502;2022-07-23T13:35:35;3.58;;;1.98;;
18610;SDS011;9435;52.122;5.502;2022-07-23T13:38:04;4.07;;;2.20;;
18610;SDS011;9435;52.122;5.502;2022-07-23T13:40:33;3.72;;;1.90;;
18610;SDS011;9435;52.122;5.502;2022-07-23T13:43:01;5.53;;;2.17;;
18610;SDS011;9435;52.122;5.502;2022-07-23T13:45:28;5.65;;;2.10;;
18610;SDS011;9435;52.122;5.502;2022-07-23T13:47:55;4.50;;;2.13;;
18610;SDS011;9435;52.122;5.502;2022-07-23T13:50:22;4.57;;;2.30;;
18610;SDS011;9435;52.122;5.502;2022-07-23T13:52:50;4.53;;;2.00;;
18610;SDS011;9435;52.122;5.502;2022-07-23T13:55:18;3.05;;;2.00;;
18610;SDS011;9435;52.122;5.502;2022-07-23T13:57:45;3.95;;;2.05;;
18610;SDS011;9435;52.122;5.502;2022-07-23T14:00:12;3.97;;;2.00;;
18610;SDS011;9435;52.122;5.502;2022-07-23T14:02:40;3.83;;;2.00;;
18610;SDS011;9435;52.122;5.502;2022-07-23T14:05:09;3.03;;;2.10;;
18610;SDS011;9435;52.122;5.502;2022-07-23T14:07:37;4.45;;;2.28;;
18610;SDS011;9435;52.122;5.502;2022-07-23T14:10:06;2.33;;;1.70;;
18610;SDS011;9435;52.122;5.502;2022-07-23T14:12:35;3.92;;;1.80;;
18610;SDS011;9435;52.122;5.502;2022-07-23T14:15:03;3.47;;;1.95;;
18610;SDS011;9435;52.122;5.502;2022-07-23T14:17:31;2.88;;;1.55;;
18610;SDS011;9435;52.122;5.502;2022-07-23T14:19:59;3.42;;;1.98;;
18610;SDS011;9435;52.122;5.502;2022-07-23T14:22:26;2.58;;;1.63;;
18610;SDS011;9435;52.122;5.502;2022-07-23T14:24:53;3.55;;;2.00;;
18610;SDS011;9435;52.122;5.502;2022-07-23T14:27:22;3.08;;;1.90;;
18610;SDS011;9435;52.122;5.502;2022-07-23T14:29:51;4.10;;;2.00;;
18610;SDS011;9435;52.122;5.502;2022-07-23T14:32:20;3.20;;;1.90;;
18610;SDS011;9435;52.122;5.502;2022-07-23T14:34:47;3.20;;;1.83;;
18610;SDS011;9435;52.122;5.502;2022-07-23T14:37:15;3.50;;;2.00;;
18610;SDS011;9435;52.122;5.502;2022-07-23T14:39:42;2.80;;;1.70;;
18610;SDS011;9435;52.122;5.502;2022-07-23T14:42:10;2.53;;;1.83;;
18610;SDS011;9435;52.122;5.502;2022-07-23T14:44:37;2.88;;;1.80;;
18610;SDS011;9435;52.122;5.502;2022-07-23T14:47:06;2.70;;;1.70;;
18610;SDS011;9435;52.122;5.502;2022-07-23T14:49:33;2.88;;;1.80;;
18610;SDS011;9435;52.122;5.502;2022-07-23T14:52:00;3.35;;;1.80;;
18610;SDS011;9435;52.122;5.502;2022-07-23T14:54:27;2.42;;;1.70;;
18610;SDS011;9435;52.122;5.502;2022-07-23T14:56:55;2.63;;;1.65;;
18610;SDS011;9435;52.122;5.502;2022-07-23T14:59:23;2.72;;;1.67;;
18610;SDS011;9435;52.122;5.502;2022-07-23T15:01:50;2.22;;;1.73;;
18610;SDS011;9435;52.122;5.502;2022-07-23T15:04:19;2.42;;;1.80;;
18610;SDS011;9435;52.122;5.502;2022-07-23T15:06:47;5.35;;;2.10;;
18610;SDS011;9435;52.122;5.502;2022-07-23T15:09:14;2.80;;;2.05;;
18610;SDS011;9435;52.122;5.502;2022-07-23T15:11:41;2.75;;;1.80;;
18610;SDS011;9435;52.122;5.502;2022-07-23T15:14:08;4.88;;;2.65;;
18610;SDS011;9435;52.122;5.502;2022-07-23T15:16:35;4.03;;;2.08;;
18610;SDS011;9435;52.122;5.502;2022-07-23T15:19:03;3.42;;;1.95;;
18610;SDS011;9435;52.122;5.502;2022-07-23T15:21:32;4.18;;;1.92;;
18610;SDS011;9435;52.122;5.502;2022-07-23T15:23:59;4.25;;;2.00;;
18610;SDS011;9435;52.122;5.502;2022-07-23T15:26:26;3.03;;;1.80;;